createdAt,value
2022-08-17T00:00:52.276Z,20.70
2022-08-17T00:03:19.680Z,20.70
2022-08-17T00:05:53.333Z,20.70
2022-08-17T00:08:21.305Z,20.70
2022-08-17T00:10:48.126Z,20.70
2022-08-17T00:13:16.750Z,20.70
2022-08-17T00:15:44.922Z,20.80
2022-08-17T00:19:00.352Z,20.70
2022-08-17T00:20:58.744Z,20.60
2022-08-17T00:23:25.636Z,20.60
2022-08-17T00:25:52.409Z,20.50
2022-08-17T00:28:19.206Z,20.50
2022-08-17T00:30:51.068Z,20.50
2022-08-17T00:33:22.062Z,20.50
2022-08-17T00:35:48.937Z,20.60
2022-08-17T00:38:15.655Z,20.60
2022-08-17T00:40:44.854Z,20.60
2022-08-17T00:43:17.838Z,20.60
2022-08-17T00:45:44.690Z,20.50
2022-08-17T00:48:30.032Z,20.50
2022-08-17T00:51:02.271Z,20.50
2022-08-17T00:53:29.391Z,20.50
2022-08-17T00:55:56.857Z,20.40
2022-08-17T00:58:35.726Z,20.40
2022-08-17T01:01:04.209Z,20.40
2022-08-17T01:03:31.193Z,20.40
2022-08-17T01:05:58.463Z,20.40
2022-08-17T01:08:26.076Z,20.40
2022-08-17T01:11:00.186Z,20.30
2022-08-17T01:13:28.784Z,20.40
2022-08-17T01:15:57.878Z,20.30
2022-08-17T01:18:24.920Z,20.30
2022-08-17T01:20:52.508Z,20.30
2022-08-17T01:23:21.251Z,20.30
2022-08-17T01:25:49.447Z,20.30
2022-08-17T01:28:52.999Z,20.30
2022-08-17T01:31:03.519Z,20.20
2022-08-17T01:33:30.305Z,20.10
2022-08-17T01:35:57.347Z,20.10
2022-08-17T01:38:27.508Z,20.10
2022-08-17T01:40:58.091Z,20.10
2022-08-17T01:43:32.987Z,20.20
2022-08-17T01:46:02.717Z,20.20
2022-08-17T01:48:32.065Z,20.20
2022-08-17T01:50:59.172Z,20.20
2022-08-17T01:53:30.249Z,20.20
2022-08-17T01:55:57.931Z,20.20
2022-08-17T01:58:24.673Z,20.20
2022-08-17T02:01:01.201Z,20.20
2022-08-17T02:03:28.457Z,20.20
2022-08-17T02:05:55.294Z,20.20
2022-08-17T02:08:39.217Z,20.10
2022-08-17T02:11:11.519Z,20.10
2022-08-17T02:13:38.670Z,20.10
2022-08-17T02:16:05.413Z,20.10
2022-08-17T02:18:32.185Z,20.10
2022-08-17T02:20:58.900Z,20.10
2022-08-17T02:23:26.601Z,20.10
2022-08-17T02:25:53.339Z,20.10
2022-08-17T02:28:20.069Z,20.10
2022-08-17T02:31:01.409Z,20.10
2022-08-17T02:33:41.784Z,20.10
2022-08-17T02:36:10.241Z,20.00
2022-08-17T02:38:37.310Z,20.00
2022-08-17T02:41:04.596Z,20.00
2022-08-17T02:43:31.462Z,19.90
2022-08-17T02:45:58.222Z,19.90
2022-08-17T02:48:31.071Z,19.90
2022-08-17T02:50:58.872Z,19.90
2022-08-17T02:53:25.860Z,19.90
2022-08-17T02:55:52.753Z,19.80
2022-08-17T02:58:34.363Z,19.90
2022-08-17T03:01:03.423Z,19.90
2022-08-17T03:03:30.243Z,19.90
2022-08-17T03:05:56.969Z,19.90
2022-08-17T03:08:23.983Z,19.80
2022-08-17T03:10:50.766Z,19.90
2022-08-17T03:13:17.506Z,19.90
2022-08-17T03:15:47.194Z,19.90
2022-08-17T03:18:25.066Z,19.80
2022-08-17T03:20:56.602Z,19.80
2022-08-17T03:23:23.963Z,19.80
2022-08-17T03:25:53.175Z,19.80
2022-08-17T03:28:20.353Z,19.80
2022-08-17T03:30:47.097Z,19.80
2022-08-17T03:33:13.896Z,19.80
2022-08-17T03:35:40.801Z,19.80
2022-08-17T03:38:08.083Z,19.80
2022-08-17T03:40:58.057Z,19.70
2022-08-17T03:43:21.952Z,19.70
2022-08-17T03:46:11.046Z,19.70
2022-08-17T03:49:12.526Z,19.70
2022-08-17T03:51:57.935Z,19.70
2022-08-17T03:54:43.422Z,19.70
2022-08-17T03:57:10.481Z,19.70
2022-08-17T03:59:37.413Z,19.60
2022-08-17T04:02:11.528Z,19.60
2022-08-17T04:04:38.272Z,19.70
2022-08-17T04:07:05.073Z,19.70
2022-08-17T04:09:31.797Z,19.80
2022-08-17T04:12:01.151Z,19.80
2022-08-17T04:14:36.353Z,19.80
2022-08-17T04:17:18.299Z,19.90
2022-08-17T04:19:46.771Z,20.00
2022-08-17T04:22:31.205Z,20.10
2022-08-17T04:25:05.584Z,20.20
2022-08-17T04:27:32.412Z,20.50
2022-08-17T04:29:59.158Z,20.70
2022-08-17T04:33:00.497Z,21.00
2022-08-17T04:35:12.786Z,21.90
2022-08-17T04:37:39.550Z,22.90
2022-08-17T04:40:32.474Z,23.80
2022-08-17T04:43:07.278Z,24.70
2022-08-17T04:45:34.202Z,25.50
2022-08-17T04:48:01.329Z,26.20
2022-08-17T04:50:28.138Z,26.80
2022-08-17T04:52:55.183Z,27.40
2022-08-17T04:55:22.289Z,27.80
2022-08-17T04:57:49.067Z,28.40
2022-08-17T05:00:15.870Z,29.10
2022-08-17T05:02:49.774Z,29.40
2022-08-17T05:05:21.374Z,29.40
2022-08-17T05:07:48.416Z,29.50
2022-08-17T05:10:15.204Z,29.70
2022-08-17T05:12:41.980Z,30.20
2022-08-17T05:15:12.870Z,30.70
2022-08-17T05:17:39.595Z,31.20
2022-08-17T05:20:06.517Z,31.90
2022-08-17T05:22:33.252Z,32.40
2022-08-17T05:25:00.021Z,32.70
2022-08-17T05:27:32.224Z,32.90
2022-08-17T05:30:02.537Z,33.10
2022-08-17T05:32:39.006Z,33.30
2022-08-17T05:35:07.100Z,33.10
2022-08-17T05:37:33.829Z,33.10
2022-08-17T05:40:00.616Z,33.10
2022-08-17T05:42:27.512Z,33.40
2022-08-17T05:44:56.823Z,33.90
2022-08-17T05:47:23.593Z,34.40
2022-08-17T05:49:50.304Z,34.70
2022-08-17T05:52:20.540Z,35.00
2022-08-17T05:55:02.394Z,35.00
2022-08-17T05:57:31.847Z,35.20
2022-08-17T06:00:20.416Z,35.10
2022-08-17T06:02:53.935Z,35.10
2022-08-17T06:05:38.984Z,35.40
2022-08-17T06:08:20.609Z,35.40
2022-08-17T06:10:51.678Z,35.20
2022-08-17T06:13:36.749Z,35.40
2022-08-17T06:16:33.593Z,35.80
2022-08-17T06:19:06.558Z,35.70
2022-08-17T06:21:34.120Z,36.20
2022-08-17T06:24:19.415Z,36.20
2022-08-17T06:26:46.217Z,36.40
2022-08-17T06:29:22.442Z,36.90
2022-08-17T06:31:50.156Z,37.60
2022-08-17T06:34:16.873Z,38.40
2022-08-17T06:36:49.774Z,38.40
2022-08-17T06:39:19.583Z,38.80
2022-08-17T06:42:05.616Z,39.30
2022-08-17T06:45:10.752Z,39.40
2022-08-17T06:47:41.226Z,39.50
2022-08-17T06:50:21.341Z,39.50
2022-08-17T06:52:48.158Z,39.60
2022-08-17T06:55:18.902Z,39.30
2022-08-17T06:57:47.770Z,39.40
2022-08-17T07:00:18.971Z,39.70
2022-08-17T07:02:51.950Z,39.90
2022-08-17T07:05:31.403Z,39.80
2022-08-17T07:08:04.158Z,39.80
2022-08-17T07:10:42.661Z,40.20
2022-08-17T07:13:15.057Z,40.30
2022-08-17T07:15:42.593Z,40.90
2022-08-17T07:18:09.564Z,41.30
2022-08-17T07:20:37.537Z,41.40
2022-08-17T07:23:07.249Z,41.20
2022-08-17T07:25:34.497Z,41.10
2022-08-17T07:28:02.493Z,41.40
2022-08-17T07:30:45.907Z,42.00
2022-08-17T07:33:33.697Z,42.50
2022-08-17T07:36:00.968Z,42.20
2022-08-17T07:38:33.789Z,42.40
2022-08-17T07:41:05.350Z,42.40
2022-08-17T07:43:35.769Z,42.80
2022-08-17T07:46:25.474Z,43.30
2022-08-17T07:48:53.721Z,43.60
2022-08-17T07:51:20.474Z,43.50
2022-08-17T07:53:48.829Z,43.90
2022-08-17T07:56:34.473Z,43.80
2022-08-17T07:59:14.998Z,44.20
2022-08-17T08:01:42.553Z,44.80
2022-08-17T08:04:19.487Z,44.90
2022-08-17T08:06:52.957Z,44.50
2022-08-17T08:09:38.542Z,44.30
2022-08-17T08:12:24.702Z,44.00
2022-08-17T08:15:00.449Z,43.50
2022-08-17T08:17:30.651Z,43.60
2022-08-17T08:20:00.531Z,43.60
2022-08-17T08:23:05.808Z,43.90
2022-08-17T08:25:53.689Z,44.10
2022-08-17T08:28:39.101Z,43.70
2022-08-17T08:31:13.026Z,42.70
2022-08-17T08:33:56.262Z,41.80
2022-08-17T08:36:57.082Z,42.00
2022-08-17T08:39:13.074Z,42.60
2022-08-17T08:41:43.370Z,43.00
2022-08-17T08:45:01.120Z,42.80
2022-08-17T08:47:32.149Z,42.40
2022-08-17T08:50:08.149Z,42.00
2022-08-17T08:52:55.190Z,41.40
2022-08-17T08:55:34.531Z,41.50
2022-08-17T08:58:03.586Z,42.10
2022-08-17T09:00:31.507Z,42.30
2022-08-17T09:03:07.465Z,42.40
2022-08-17T09:05:54.161Z,42.60
2022-08-17T09:08:39.342Z,42.60
2022-08-17T09:11:24.954Z,42.20
2022-08-17T09:13:54.765Z,42.30
2022-08-17T09:16:23.249Z,43.20
2022-08-17T09:19:00.150Z,43.50
2022-08-17T09:21:38.287Z,43.70
2022-08-17T09:24:41.431Z,43.50
2022-08-17T09:27:09.268Z,43.50
2022-08-17T09:29:36.814Z,43.70
2022-08-17T09:32:12.718Z,43.70
2022-08-17T09:34:43.565Z,43.80
2022-08-17T09:37:26.075Z,43.90
2022-08-17T09:40:19.504Z,44.00
2022-08-17T09:42:53.767Z,43.20
2022-08-17T09:45:28.268Z,42.60
2022-08-17T09:48:00.073Z,42.40
2022-08-17T09:51:03.462Z,42.40
2022-08-17T09:53:25.783Z,42.50
2022-08-17T09:56:00.977Z,42.50
2022-08-17T09:58:50.529Z,42.50
2022-08-17T10:01:36.367Z,42.30
2022-08-17T10:04:10.395Z,42.00
2022-08-17T10:06:47.791Z,41.50
2022-08-17T10:09:16.366Z,41.00
2022-08-17T10:12:09.534Z,40.50
2022-08-17T10:14:44.089Z,39.70
2022-08-17T10:17:11.354Z,39.00
2022-08-17T10:19:39.313Z,38.50
2022-08-17T10:22:37.884Z,38.40
2022-08-17T10:25:26.159Z,38.40
2022-08-17T10:28:01.739Z,38.10
2022-08-17T10:30:29.358Z,37.70
2022-08-17T10:33:02.974Z,37.00
2022-08-17T10:35:59.003Z,36.60
2022-08-17T10:38:30.279Z,36.40
2022-08-17T10:40:58.484Z,36.00
2022-08-17T10:43:25.301Z,35.70
2022-08-17T10:46:10.593Z,35.40
2022-08-17T10:48:42.739Z,35.10
2022-08-17T10:51:13.243Z,35.00
2022-08-17T10:53:40.728Z,34.90
2022-08-17T10:56:13.584Z,34.80
2022-08-17T10:58:56.195Z,34.80
2022-08-17T11:01:29.577Z,34.70
2022-08-17T11:03:57.260Z,34.30
2022-08-17T11:06:25.651Z,34.20
2022-08-17T11:08:57.015Z,34.20
2022-08-17T11:11:43.427Z,34.20
2022-08-17T11:14:14.057Z,34.10
2022-08-17T11:16:40.992Z,34.10
2022-08-17T11:19:10.481Z,34.20
2022-08-17T11:21:47.569Z,34.00
2022-08-17T11:24:14.678Z,34.00
2022-08-17T11:26:46.790Z,34.00
2022-08-17T11:29:18.073Z,34.00
2022-08-17T11:31:46.606Z,33.90
2022-08-17T11:34:23.195Z,33.90
2022-08-17T11:37:08.694Z,34.00
2022-08-17T11:39:38.946Z,34.10
2022-08-17T11:42:25.598Z,34.10
2022-08-17T11:44:58.232Z,34.00
2022-08-17T11:47:52.958Z,33.90
2022-08-17T11:51:07.982Z,33.90
2022-08-17T11:53:37.645Z,34.10
2022-08-17T11:56:04.468Z,34.20
2022-08-17T11:58:31.183Z,34.10
2022-08-17T12:01:01.803Z,34.10
2022-08-17T12:03:34.615Z,34.10
2022-08-17T12:06:05.871Z,34.10
2022-08-17T12:08:33.937Z,34.10
2022-08-17T12:11:00.678Z,34.10
2022-08-17T12:13:34.676Z,34.10
2022-08-17T12:16:05.577Z,34.20
2022-08-17T12:18:35.661Z,34.40
2022-08-17T12:21:20.971Z,34.50
2022-08-17T12:23:54.968Z,34.60
2022-08-17T12:26:22.629Z,34.70
2022-08-17T12:28:50.586Z,34.70
2022-08-17T12:31:22.036Z,34.80
2022-08-17T12:33:50.018Z,34.70
2022-08-17T12:36:17.483Z,34.50
2022-08-17T12:38:57.298Z,34.40
2022-08-17T12:41:44.969Z,34.30
2022-08-17T12:44:12.334Z,34.40
2022-08-17T12:46:49.819Z,34.50
2022-08-17T12:49:22.848Z,34.50
2022-08-17T12:51:49.835Z,34.60
2022-08-17T12:54:21.613Z,34.70
2022-08-17T12:56:48.324Z,34.70
2022-08-17T12:59:29.617Z,34.60
2022-08-17T13:01:57.783Z,34.40
2022-08-17T13:04:26.619Z,34.30
2022-08-17T13:06:59.553Z,34.30
2022-08-17T13:09:35.561Z,34.30
2022-08-17T13:12:07.730Z,34.10
2022-08-17T13:14:35.187Z,34.10
2022-08-17T13:17:02.107Z,34.20
2022-08-17T13:19:40.669Z,34.20
2022-08-17T13:22:10.102Z,34.20
2022-08-17T13:24:38.351Z,34.10
2022-08-17T13:27:08.267Z,34.10
2022-08-17T13:29:37.133Z,34.20
2022-08-17T13:32:05.152Z,34.30
2022-08-17T13:35:13.030Z,34.40
2022-08-17T13:37:32.697Z,34.50
2022-08-17T13:40:02.886Z,34.50
2022-08-17T13:42:51.951Z,34.40
2022-08-17T13:45:36.886Z,34.40
2022-08-17T13:48:13.610Z,34.40
2022-08-17T13:50:59.606Z,34.40
2022-08-17T13:53:32.840Z,34.50
2022-08-17T13:56:01.084Z,34.60
2022-08-17T13:58:32.047Z,34.60
2022-08-17T14:00:58.887Z,34.60
2022-08-17T14:03:25.642Z,34.60
2022-08-17T14:05:52.427Z,34.60
2022-08-17T14:08:19.902Z,34.60
2022-08-17T14:10:51.740Z,34.60
2022-08-17T14:13:18.632Z,34.70
2022-08-17T14:15:54.988Z,34.60
2022-08-17T14:18:35.555Z,34.60
2022-08-17T14:21:10.291Z,34.60
2022-08-17T14:23:37.164Z,34.60
2022-08-17T14:26:04.110Z,34.70
2022-08-17T14:28:30.890Z,34.60
2022-08-17T14:30:59.209Z,34.50
2022-08-17T14:33:26.023Z,34.40
2022-08-17T14:35:53.676Z,34.40
2022-08-17T14:38:20.572Z,34.50
2022-08-17T14:40:47.464Z,34.50
2022-08-17T14:43:15.954Z,34.60
2022-08-17T14:45:42.990Z,34.60
2022-08-17T14:48:09.779Z,34.50
2022-08-17T14:50:37.497Z,34.50
2022-08-17T14:53:05.352Z,34.40
2022-08-17T14:55:32.656Z,34.40
2022-08-17T14:57:59.400Z,34.40
2022-08-17T15:00:26.980Z,34.40
2022-08-17T15:02:54.676Z,34.40
2022-08-17T15:05:22.121Z,34.40
2022-08-17T15:07:48.964Z,34.40
2022-08-17T15:10:15.773Z,34.30
2022-08-17T15:12:42.556Z,34.30
2022-08-17T15:15:10.063Z,34.40
2022-08-17T15:17:44.929Z,34.40
2022-08-17T15:20:16.163Z,34.40
2022-08-17T15:22:43.178Z,34.30
2022-08-17T15:25:10.598Z,34.30
2022-08-17T15:27:37.353Z,34.20
2022-08-17T15:30:07.387Z,34.20
2022-08-17T15:32:35.114Z,34.20
2022-08-17T15:35:02.232Z,34.20
2022-08-17T15:37:29.149Z,34.10
2022-08-17T15:39:56.037Z,34.20
2022-08-17T15:42:22.982Z,34.10
2022-08-17T15:44:49.810Z,34.00
2022-08-17T15:47:19.223Z,34.00
2022-08-17T15:49:46.020Z,34.00
2022-08-17T15:52:21.405Z,34.00
2022-08-17T15:54:51.172Z,33.90
2022-08-17T15:57:17.948Z,33.90
2022-08-17T15:59:44.761Z,33.80
2022-08-17T16:03:13.144Z,33.80
2022-08-17T16:05:10.107Z,33.80
2022-08-17T16:07:37.367Z,33.70
2022-08-17T16:10:04.814Z,33.60
2022-08-17T16:12:31.623Z,33.60
2022-08-17T16:14:58.371Z,33.50
2022-08-17T16:17:40.028Z,33.50
2022-08-17T16:20:08.221Z,33.40
2022-08-17T16:22:36.501Z,33.40
2022-08-17T16:25:06.845Z,33.40
2022-08-17T16:27:33.559Z,33.30
2022-08-17T16:30:01.022Z,33.30
2022-08-17T16:32:31.722Z,33.20
2022-08-17T16:35:03.474Z,33.10
2022-08-17T16:37:30.986Z,33.10
2022-08-17T16:40:01.025Z,33.00
2022-08-17T16:42:28.983Z,33.00
2022-08-17T16:44:57.046Z,32.90
2022-08-17T16:47:24.030Z,32.70
2022-08-17T16:49:50.752Z,32.50
2022-08-17T16:52:33.114Z,32.30
2022-08-17T16:55:00.757Z,32.10
2022-08-17T16:57:27.632Z,31.90
2022-08-17T16:59:54.397Z,31.70
2022-08-17T17:02:25.300Z,31.60
2022-08-17T17:04:54.185Z,31.40
2022-08-17T17:07:34.470Z,31.20
2022-08-17T17:10:11.577Z,31.10
2022-08-17T17:13:02.369Z,30.90
2022-08-17T17:15:27.555Z,30.80
2022-08-17T17:17:54.292Z,30.70
2022-08-17T17:20:24.836Z,30.60
2022-08-17T17:23:13.226Z,30.50
2022-08-17T17:25:40.623Z,30.30
2022-08-17T17:28:18.198Z,30.20
2022-08-17T17:31:04.138Z,30.10
2022-08-17T17:33:51.192Z,30.00
2022-08-17T17:36:27.085Z,29.80
2022-08-17T17:38:55.383Z,29.70
2022-08-17T17:41:30.156Z,29.60
2022-08-17T17:44:05.141Z,29.40
2022-08-17T17:46:37.991Z,29.30
2022-08-17T17:49:06.054Z,29.20
2022-08-17T17:52:02.832Z,29.00
2022-08-17T17:54:32.478Z,28.90
2022-08-17T17:57:02.314Z,28.70
2022-08-17T17:59:44.098Z,28.60
2022-08-17T18:02:11.200Z,28.50
2022-08-17T18:04:41.376Z,28.30
2022-08-17T18:07:09.984Z,28.20
2022-08-17T18:09:56.219Z,28.10
2022-08-17T18:12:28.406Z,28.10
2022-08-17T18:15:13.564Z,28.00
2022-08-17T18:17:58.770Z,28.00
2022-08-17T18:20:32.366Z,28.00
2022-08-17T18:23:10.187Z,27.90
2022-08-17T18:25:40.016Z,27.90
2022-08-17T18:28:07.683Z,27.80
2022-08-17T18:30:34.499Z,27.80
2022-08-17T18:33:22.141Z,27.80
2022-08-17T18:35:58.914Z,27.70
2022-08-17T18:38:35.322Z,27.70
2022-08-17T18:41:02.106Z,27.70
2022-08-17T18:43:43.799Z,27.60
2022-08-17T18:46:28.052Z,27.50
2022-08-17T18:49:07.574Z,27.40
2022-08-17T18:51:42.464Z,27.30
2022-08-17T18:54:13.779Z,27.30
2022-08-17T18:56:41.433Z,27.20
2022-08-17T18:59:27.072Z,27.00
2022-08-17T19:01:59.189Z,26.90
2022-08-17T19:04:34.004Z,26.90
2022-08-17T19:07:03.088Z,26.80
2022-08-17T19:09:32.674Z,26.70
2022-08-17T19:12:00.522Z,26.60
2022-08-17T19:14:27.274Z,26.50
2022-08-17T19:17:09.584Z,26.50
2022-08-17T19:20:03.154Z,26.40
2022-08-17T19:22:50.861Z,26.50
2022-08-17T19:25:19.067Z,26.40
2022-08-17T19:27:57.533Z,26.40
2022-08-17T19:30:24.741Z,26.40
2022-08-17T19:32:52.540Z,26.30
2022-08-17T19:35:20.280Z,26.40
2022-08-17T19:37:47.479Z,26.30
2022-08-17T19:40:29.231Z,26.20
2022-08-17T19:43:00.941Z,26.20
2022-08-17T19:45:46.585Z,26.10
2022-08-17T19:48:13.595Z,26.10
2022-08-17T19:50:43.105Z,26.10
2022-08-17T19:53:54.230Z,26.00
2022-08-17T19:56:23.007Z,25.90
2022-08-17T19:59:08.543Z,25.90
2022-08-17T20:01:47.981Z,25.90
2022-08-17T20:04:16.640Z,25.80
2022-08-17T20:06:44.242Z,25.70
2022-08-17T20:09:15.316Z,25.50
2022-08-17T20:11:49.090Z,25.40
2022-08-17T20:14:18.282Z,25.30
2022-08-17T20:16:45.015Z,25.30
2022-08-17T20:19:14.576Z,25.30
2022-08-17T20:21:50.152Z,25.30
2022-08-17T20:24:22.647Z,25.30
2022-08-17T20:26:59.774Z,25.30
2022-08-17T20:29:39.824Z,25.20
2022-08-17T20:32:13.205Z,25.20
2022-08-17T20:34:40.058Z,25.20
2022-08-17T20:37:07.298Z,25.20
2022-08-17T20:39:42.473Z,25.10
2022-08-17T20:42:15.554Z,25.10
2022-08-17T20:44:42.791Z,25.10
2022-08-17T20:47:10.783Z,25.10
2022-08-17T20:49:44.611Z,25.10
2022-08-17T20:52:16.676Z,25.10
2022-08-17T20:54:43.457Z,25.10
2022-08-17T20:57:13.880Z,25.00
2022-08-17T20:59:44.239Z,25.00
2022-08-17T21:02:18.394Z,25.00
2022-08-17T21:04:55.043Z,24.90
2022-08-17T21:07:43.187Z,24.90
2022-08-17T21:10:25.819Z,24.90
2022-08-17T21:12:52.564Z,24.90
2022-08-17T21:15:38.015Z,24.90
2022-08-17T21:18:23.427Z,24.90
2022-08-17T21:21:08.672Z,24.80
2022-08-17T21:23:38.170Z,24.80
2022-08-17T21:26:28.065Z,24.70
2022-08-17T21:29:31.548Z,24.70
2022-08-17T21:31:59.727Z,24.60
2022-08-17T21:34:27.545Z,24.50
2022-08-17T21:36:54.307Z,24.50
2022-08-17T21:39:30.706Z,24.50
2022-08-17T21:42:00.047Z,24.40
2022-08-17T21:44:40.291Z,24.40
2022-08-17T21:47:34.899Z,24.40
2022-08-17T21:50:15.064Z,24.40
2022-08-17T21:52:41.751Z,24.40
2022-08-17T21:55:08.739Z,24.30
2022-08-17T21:57:35.581Z,24.30
2022-08-17T22:00:02.603Z,24.30
2022-08-17T22:02:31.200Z,24.30
2022-08-17T22:05:02.079Z,24.20
2022-08-17T22:07:36.195Z,24.20
2022-08-17T22:10:03.014Z,24.20
2022-08-17T22:12:30.036Z,24.20
2022-08-17T22:14:57.972Z,24.20
2022-08-17T22:17:25.100Z,24.10
2022-08-17T22:20:14.998Z,24.00
2022-08-17T22:23:06.639Z,24.00
2022-08-17T22:25:34.052Z,23.90
2022-08-17T22:28:01.430Z,23.90
2022-08-17T22:30:32.623Z,23.90
2022-08-17T22:32:59.710Z,23.80
2022-08-17T22:35:29.522Z,23.80
2022-08-17T22:37:56.549Z,23.80
2022-08-17T22:40:29.034Z,23.90
2022-08-17T22:42:57.210Z,23.90
2022-08-17T22:45:26.855Z,23.90
2022-08-17T22:47:54.514Z,23.90
2022-08-17T22:50:22.552Z,24.00
2022-08-17T22:53:34.288Z,24.00
2022-08-17T22:56:19.890Z,23.90
2022-08-17T22:59:13.544Z,23.80
2022-08-17T23:01:40.532Z,23.80
2022-08-17T23:04:08.280Z,23.70
2022-08-17T23:06:35.404Z,23.70
2022-08-17T23:09:04.266Z,23.70
2022-08-17T23:11:48.978Z,23.70
2022-08-17T23:14:19.147Z,23.60
2022-08-17T23:16:46.270Z,23.60
2022-08-17T23:19:13.544Z,23.50
2022-08-17T23:21:40.288Z,23.50
2022-08-17T23:24:08.945Z,23.40
2022-08-17T23:26:38.194Z,23.40
2022-08-17T23:29:05.283Z,23.40
2022-08-17T23:31:34.819Z,23.40
2022-08-17T23:34:01.858Z,23.40
2022-08-17T23:36:29.462Z,23.30
2022-08-17T23:38:56.740Z,23.30
2022-08-17T23:41:23.467Z,23.30
2022-08-17T23:43:51.082Z,23.30
2022-08-17T23:46:17.859Z,23.20
2022-08-17T23:48:44.629Z,23.20
2022-08-17T23:51:12.946Z,23.20
2022-08-17T23:53:44.776Z,23.20
2022-08-17T23:56:11.881Z,23.20
2022-08-17T23:58:39.661Z,23.20
